createdAt,value
2023-01-17T00:02:20.152Z,5.80
2023-01-17T00:05:05.961Z,5.90
2023-01-17T00:07:51.923Z,5.70
2023-01-17T00:10:24.489Z,5.60
2023-01-17T00:12:57.317Z,5.70
2023-01-17T00:15:25.135Z,5.50
2023-01-17T00:17:53.435Z,5.40
2023-01-17T00:20:44.042Z,5.50
2023-01-17T00:23:35.045Z,5.20
2023-01-17T00:26:04.934Z,5.40
2023-01-17T00:28:37.009Z,5.20
2023-01-17T00:31:04.931Z,5.40
2023-01-17T00:33:35.712Z,5.20
2023-01-17T00:36:03.650Z,5.40
2023-01-17T00:38:32.981Z,4.90
2023-01-17T00:41:13.630Z,5.00
2023-01-17T00:43:59.423Z,5.20
2023-01-17T00:46:44.941Z,5.10
2023-01-17T00:49:30.303Z,4.90
2023-01-17T00:52:15.607Z,5.00
2023-01-17T00:55:00.931Z,4.80
2023-01-17T00:57:46.048Z,4.70
2023-01-17T01:00:31.596Z,4.70
2023-01-17T01:03:16.756Z,4.80
2023-01-17T01:06:01.689Z,4.80
2023-01-17T01:08:48.280Z,4.70
2023-01-17T01:11:35.470Z,4.60
2023-01-17T01:14:21.173Z,4.90
2023-01-17T01:17:06.411Z,4.60
2023-01-17T01:19:51.512Z,4.70
2023-01-17T01:22:36.787Z,4.50
2023-01-17T01:25:22.165Z,4.50
2023-01-17T01:28:07.398Z,4.60
2023-01-17T01:30:52.338Z,4.40
2023-01-17T01:33:18.900Z,4.60
2023-01-17T01:35:47.306Z,4.50
2023-01-17T01:38:14.026Z,4.40
2023-01-17T01:40:50.087Z,4.60
2023-01-17T01:43:19.780Z,4.50
2023-01-17T01:45:51.591Z,4.50
2023-01-17T01:48:33.654Z,4.50
2023-01-17T01:51:06.256Z,4.50
2023-01-17T01:53:36.063Z,4.50
2023-01-17T01:56:03.558Z,4.70
2023-01-17T01:58:32.390Z,4.60
2023-01-17T02:00:59.091Z,4.60
2023-01-17T02:03:30.749Z,4.80
2023-01-17T02:06:01.062Z,4.80
2023-01-17T02:08:27.809Z,4.90
2023-01-17T02:10:55.458Z,4.80
2023-01-17T02:13:22.110Z,4.70
2023-01-17T02:16:23.917Z,4.60
2023-01-17T02:19:05.703Z,4.70
2023-01-17T02:21:37.170Z,4.90
2023-01-17T02:24:22.649Z,5.00
2023-01-17T02:27:01.144Z,5.00
2023-01-17T02:29:43.012Z,4.90
2023-01-17T02:32:54.224Z,4.70
2023-01-17T02:35:33.765Z,4.80
2023-01-17T02:38:06.941Z,4.70
2023-01-17T02:40:40.532Z,4.50
2023-01-17T02:43:10.805Z,4.90
2023-01-17T02:45:37.602Z,4.70
2023-01-17T02:48:05.209Z,4.80
2023-01-17T02:50:52.374Z,4.70
2023-01-17T02:53:33.078Z,4.70
2023-01-17T02:56:19.820Z,4.80
2023-01-17T02:58:52.228Z,4.90
2023-01-17T03:02:11.414Z,5.00
2023-01-17T03:04:44.678Z,5.00
2023-01-17T03:07:16.329Z,4.90
2023-01-17T03:09:45.789Z,4.80
2023-01-17T03:12:13.382Z,4.60
2023-01-17T03:14:40.010Z,4.70
2023-01-17T03:17:06.722Z,4.80
2023-01-17T03:19:33.636Z,4.80
2023-01-17T03:22:00.202Z,4.70
2023-01-17T03:24:26.727Z,4.70
2023-01-17T03:26:53.352Z,4.70
2023-01-17T03:29:19.907Z,4.80
2023-01-17T03:31:46.764Z,4.90
2023-01-17T03:34:13.278Z,4.80
2023-01-17T03:36:39.894Z,4.90
2023-01-17T03:39:06.659Z,4.90
2023-01-17T03:41:33.271Z,4.90
2023-01-17T03:44:00.822Z,5.00
2023-01-17T03:46:28.656Z,5.00
2023-01-17T03:48:55.406Z,5.40
2023-01-17T03:51:21.980Z,5.10
2023-01-17T03:53:49.916Z,5.10
2023-01-17T03:56:16.633Z,5.30
2023-01-17T03:58:43.620Z,5.30
2023-01-17T04:01:10.454Z,5.50
2023-01-17T04:03:37.160Z,5.50
2023-01-17T04:06:03.891Z,5.40
2023-01-17T04:08:30.534Z,5.10
2023-01-17T04:10:57.158Z,5.30
2023-01-17T04:13:23.710Z,5.20
2023-01-17T04:15:51.141Z,5.10
2023-01-17T04:18:18.622Z,5.00
2023-01-17T04:20:45.260Z,5.10
2023-01-17T04:23:11.889Z,5.00
2023-01-17T04:25:38.428Z,5.10
2023-01-17T04:28:05.402Z,5.00
2023-01-17T04:30:32.874Z,5.00
2023-01-17T04:32:59.788Z,5.00
2023-01-17T04:35:26.559Z,5.00
2023-01-17T04:37:53.210Z,5.00
2023-01-17T04:40:20.044Z,5.20
2023-01-17T04:42:47.194Z,5.10
2023-01-17T04:45:14.522Z,5.20
2023-01-17T04:47:41.158Z,5.10
2023-01-17T04:50:08.714Z,5.20
2023-01-17T04:52:35.355Z,5.40
2023-01-17T04:55:02.116Z,5.20
2023-01-17T04:57:28.771Z,5.20
2023-01-17T04:59:55.275Z,5.20
2023-01-17T05:02:22.123Z,5.10
2023-01-17T05:04:48.732Z,5.20
2023-01-17T05:07:15.316Z,5.10
2023-01-17T05:09:43.567Z,5.10
2023-01-17T05:12:10.203Z,5.10
2023-01-17T05:14:36.857Z,5.10
2023-01-17T05:17:03.456Z,5.00
2023-01-17T05:19:30.033Z,5.00
2023-01-17T05:22:03.583Z,4.80
2023-01-17T05:24:31.130Z,4.70
2023-01-17T05:27:02.849Z,4.70
2023-01-17T05:29:30.387Z,4.80
2023-01-17T05:31:57.082Z,4.70
2023-01-17T05:34:23.899Z,4.70
2023-01-17T05:36:50.363Z,4.70
2023-01-17T05:39:16.922Z,4.70
2023-01-17T05:41:43.527Z,4.70
2023-01-17T05:44:10.245Z,4.70
2023-01-17T05:46:36.842Z,4.70
2023-01-17T05:49:03.592Z,4.70
2023-01-17T05:51:30.127Z,4.70
2023-01-17T05:53:56.676Z,4.70
2023-01-17T05:56:23.301Z,4.70
2023-01-17T05:58:49.879Z,4.70
2023-01-17T06:01:17.548Z,4.70
2023-01-17T06:03:44.208Z,4.70
2023-01-17T06:06:10.864Z,4.70
2023-01-17T06:08:37.571Z,4.80
2023-01-17T06:11:04.160Z,4.80
2023-01-17T06:13:30.756Z,4.80
2023-01-17T06:16:02.585Z,4.80
2023-01-17T06:18:29.539Z,4.80
2023-01-17T06:20:56.384Z,4.80
2023-01-17T06:23:23.966Z,4.80
2023-01-17T06:25:53.429Z,4.90
2023-01-17T06:28:22.714Z,4.80
2023-01-17T06:30:49.679Z,4.80
2023-01-17T06:33:16.493Z,4.80
2023-01-17T06:35:50.156Z,4.80
2023-01-17T06:38:17.372Z,4.80
2023-01-17T06:40:44.081Z,4.80
2023-01-17T06:43:10.863Z,4.80
2023-01-17T06:45:37.395Z,4.80
2023-01-17T06:48:05.554Z,4.80
2023-01-17T06:50:33.285Z,4.80
2023-01-17T06:53:02.636Z,4.80
2023-01-17T06:55:30.713Z,4.70
2023-01-17T06:57:59.320Z,4.90
2023-01-17T07:00:26.984Z,4.90
2023-01-17T07:02:53.618Z,4.80
2023-01-17T07:05:20.458Z,4.80
2023-01-17T07:07:47.342Z,4.80
2023-01-17T07:10:14.861Z,4.90
2023-01-17T07:12:41.711Z,4.80
2023-01-17T07:15:08.985Z,4.80
2023-01-17T07:17:35.535Z,4.90
2023-01-17T07:20:02.137Z,5.00
2023-01-17T07:22:28.790Z,4.90
2023-01-17T07:24:58.539Z,4.90
2023-01-17T07:27:27.628Z,4.90
2023-01-17T07:29:54.482Z,4.80
2023-01-17T07:32:21.321Z,4.80
2023-01-17T07:34:48.111Z,4.80
2023-01-17T07:37:15.407Z,4.80
2023-01-17T07:39:42.267Z,4.80
2023-01-17T07:42:09.343Z,4.80
2023-01-17T07:44:36.076Z,4.80
2023-01-17T07:47:04.135Z,4.70
2023-01-17T07:49:30.830Z,4.70
2023-01-17T07:51:57.413Z,4.70
2023-01-17T07:54:24.077Z,4.70
2023-01-17T07:56:50.791Z,4.60
2023-01-17T07:59:18.083Z,4.70
2023-01-17T08:01:45.273Z,4.70
2023-01-17T08:04:11.960Z,4.70
2023-01-17T08:06:39.481Z,4.70
2023-01-17T08:09:06.063Z,4.70
2023-01-17T08:11:32.613Z,4.70
2023-01-17T08:14:00.068Z,4.70
2023-01-17T08:16:28.713Z,4.70
2023-01-17T08:18:56.325Z,4.70
2023-01-17T08:21:23.368Z,4.80
2023-01-17T08:23:51.133Z,4.80
2023-01-17T08:26:22.241Z,4.90
2023-01-17T08:29:01.900Z,5.00
2023-01-17T08:31:31.067Z,5.10
2023-01-17T08:33:57.713Z,5.20
2023-01-17T08:36:28.602Z,5.30
2023-01-17T08:38:55.500Z,5.30
2023-01-17T08:41:23.224Z,5.40
2023-01-17T08:43:51.056Z,5.40
2023-01-17T08:46:18.125Z,5.30
2023-01-17T08:48:44.967Z,5.30
2023-01-17T08:51:11.971Z,5.30
2023-01-17T08:53:38.566Z,5.40
2023-01-17T08:56:05.787Z,5.40
2023-01-17T08:58:32.930Z,5.50
2023-01-17T09:01:04.176Z,5.40
2023-01-17T09:03:32.334Z,5.40
2023-01-17T09:06:05.960Z,5.30
2023-01-17T09:08:33.503Z,5.30
2023-01-17T09:11:12.056Z,5.40
2023-01-17T09:13:39.469Z,5.40
2023-01-17T09:16:07.189Z,5.40
2023-01-17T09:18:35.094Z,5.50
2023-01-17T09:21:16.383Z,5.50
2023-01-17T09:23:43.214Z,5.40
2023-01-17T09:26:29.669Z,5.40
2023-01-17T09:28:56.417Z,5.70
2023-01-17T09:31:24.465Z,5.60
2023-01-17T09:33:51.964Z,5.40
2023-01-17T09:36:19.134Z,5.40
2023-01-17T09:38:46.059Z,5.40
2023-01-17T09:41:43.267Z,5.40
2023-01-17T09:44:32.638Z,5.50
2023-01-17T09:47:04.952Z,5.50
2023-01-17T09:49:45.997Z,5.50
2023-01-17T09:52:18.985Z,5.50
2023-01-17T09:54:47.938Z,5.30
2023-01-17T09:57:35.675Z,5.20
2023-01-17T10:00:41.758Z,5.30
2023-01-17T10:03:45.572Z,5.20
2023-01-17T10:06:42.321Z,5.20
2023-01-17T10:09:27.673Z,5.30
2023-01-17T10:12:14.168Z,5.20
2023-01-17T10:14:49.644Z,4.90
2023-01-17T10:17:36.325Z,4.70
2023-01-17T10:20:15.990Z,4.80
2023-01-17T10:23:10.027Z,4.70
2023-01-17T10:25:49.099Z,4.60
2023-01-17T10:28:30.880Z,4.80
2023-01-17T10:31:19.857Z,4.80
2023-01-17T10:33:59.221Z,4.80
2023-01-17T10:36:27.960Z,4.70
2023-01-17T10:39:00.858Z,4.90
2023-01-17T10:41:34.556Z,5.00
2023-01-17T10:44:28.739Z,5.00
2023-01-17T10:47:22.628Z,4.70
2023-01-17T10:49:54.575Z,4.70
2023-01-17T10:52:36.978Z,4.70
2023-01-17T10:55:22.191Z,4.80
2023-01-17T10:57:49.100Z,4.80
2023-01-17T11:00:43.910Z,5.00
2023-01-17T11:03:12.219Z,4.70
2023-01-17T11:05:40.678Z,5.00
2023-01-17T11:08:13.342Z,4.90
2023-01-17T11:10:49.653Z,5.00
2023-01-17T11:13:35.643Z,5.40
2023-01-17T11:16:16.316Z,5.40
2023-01-17T11:18:43.184Z,5.20
2023-01-17T11:21:16.799Z,4.90
2023-01-17T11:23:47.844Z,5.20
2023-01-17T11:26:31.812Z,5.20
2023-01-17T11:29:22.956Z,5.80
2023-01-17T11:31:49.579Z,5.70
2023-01-17T11:34:24.761Z,5.40
2023-01-17T11:37:19.886Z,5.60
2023-01-17T11:39:49.798Z,5.40
2023-01-17T11:42:36.359Z,6.00
2023-01-17T11:45:25.219Z,6.00
2023-01-17T11:48:14.605Z,6.30
2023-01-17T11:51:00.137Z,6.40
2023-01-17T11:53:36.435Z,6.10
2023-01-17T11:56:18.737Z,6.10
2023-01-17T11:58:45.897Z,5.50
2023-01-17T12:01:12.555Z,5.40
2023-01-17T12:03:42.701Z,5.60
2023-01-17T12:06:21.162Z,4.70
2023-01-17T12:09:02.755Z,4.40
2023-01-17T12:11:35.880Z,4.30
2023-01-17T12:14:23.751Z,4.60
2023-01-17T12:17:05.632Z,5.30
2023-01-17T12:20:01.439Z,5.30
2023-01-17T12:22:28.145Z,5.20
2023-01-17T12:25:16.292Z,5.10
2023-01-17T12:27:50.339Z,4.50
2023-01-17T12:30:32.085Z,4.70
2023-01-17T12:33:26.780Z,4.80
2023-01-17T12:35:57.091Z,4.70
2023-01-17T12:38:32.889Z,5.10
2023-01-17T12:41:07.423Z,5.10
2023-01-17T12:43:44.578Z,5.50
2023-01-17T12:46:27.068Z,4.70
2023-01-17T12:49:14.647Z,4.70
2023-01-17T12:51:43.431Z,4.90
2023-01-17T12:54:21.173Z,4.60
2023-01-17T12:56:53.439Z,4.70
2023-01-17T12:59:28.235Z,4.70
2023-01-17T13:01:59.445Z,4.80
2023-01-17T13:05:10.105Z,4.90
2023-01-17T13:07:42.561Z,4.70
2023-01-17T13:10:44.365Z,5.10
2023-01-17T13:13:28.204Z,5.20
2023-01-17T13:15:58.646Z,5.20
2023-01-17T13:18:29.589Z,6.00
2023-01-17T13:21:05.995Z,7.20
2023-01-17T13:23:58.981Z,7.90
2023-01-17T13:26:50.627Z,7.90
2023-01-17T13:29:55.235Z,7.50
2023-01-17T13:32:37.457Z,7.70
2023-01-17T13:35:19.684Z,7.70
2023-01-17T13:37:52.642Z,8.40
2023-01-17T13:40:45.941Z,7.90
2023-01-17T13:43:14.850Z,6.80
2023-01-17T13:45:41.747Z,6.10
2023-01-17T13:48:14.688Z,6.50
2023-01-17T13:50:41.221Z,5.90
2023-01-17T13:53:36.718Z,5.40
2023-01-17T13:56:18.452Z,5.60
2023-01-17T13:58:54.276Z,5.40
2023-01-17T14:01:24.039Z,5.40
2023-01-17T14:03:53.491Z,5.60
2023-01-17T14:06:46.320Z,5.30
2023-01-17T14:09:12.855Z,5.00
2023-01-17T14:12:08.996Z,4.80
2023-01-17T14:14:41.925Z,4.70
2023-01-17T14:17:22.611Z,4.70
2023-01-17T14:19:51.816Z,4.80
2023-01-17T14:22:18.278Z,4.60
2023-01-17T14:25:03.587Z,4.60
2023-01-17T14:27:39.216Z,4.60
2023-01-17T14:30:18.268Z,4.80
2023-01-17T14:33:09.280Z,4.60
2023-01-17T14:35:41.860Z,4.80
2023-01-17T14:38:23.208Z,4.70
2023-01-17T14:40:57.371Z,4.80
2023-01-17T14:43:25.984Z,4.90
2023-01-17T14:46:04.403Z,4.90
2023-01-17T14:48:31.121Z,5.10
2023-01-17T14:51:00.034Z,5.10
2023-01-17T14:53:31.323Z,5.10
2023-01-17T14:56:02.883Z,5.30
2023-01-17T14:58:39.297Z,5.10
2023-01-17T15:01:14.388Z,5.10
2023-01-17T15:03:43.235Z,5.30
2023-01-17T15:06:13.068Z,5.20
2023-01-17T15:08:39.778Z,5.10
2023-01-17T15:11:09.783Z,5.20
2023-01-17T15:13:44.883Z,5.00
2023-01-17T15:16:27.471Z,5.30
2023-01-17T15:18:55.479Z,5.20
2023-01-17T15:21:24.806Z,5.40
2023-01-17T15:23:57.287Z,6.10
2023-01-17T15:26:26.273Z,5.50
2023-01-17T15:28:53.554Z,5.00
2023-01-17T15:31:39.695Z,4.70
2023-01-17T15:34:08.091Z,4.90
2023-01-17T15:36:35.127Z,5.00
2023-01-17T15:39:05.147Z,5.10
2023-01-17T15:41:34.338Z,4.90
2023-01-17T15:44:02.258Z,4.60
2023-01-17T15:46:30.219Z,4.40
2023-01-17T15:49:19.583Z,4.40
2023-01-17T15:51:53.451Z,4.50
2023-01-17T15:54:29.097Z,4.50
2023-01-17T15:57:23.702Z,4.40
2023-01-17T16:00:14.638Z,4.50
2023-01-17T16:02:51.824Z,4.60
2023-01-17T16:05:24.665Z,5.10
2023-01-17T16:08:11.485Z,5.30
2023-01-17T16:10:39.047Z,5.20
2023-01-17T16:13:07.525Z,5.40
2023-01-17T16:15:36.918Z,5.50
2023-01-17T16:18:06.577Z,5.20
2023-01-17T16:20:37.125Z,5.00
2023-01-17T16:23:03.790Z,5.00
2023-01-17T16:25:32.631Z,4.70
2023-01-17T16:27:59.779Z,4.50
2023-01-17T16:30:27.243Z,4.10
2023-01-17T16:32:53.853Z,4.10
2023-01-17T16:35:22.728Z,4.00
2023-01-17T16:37:54.005Z,4.00
2023-01-17T16:40:22.616Z,3.70
2023-01-17T16:42:49.584Z,3.70
2023-01-17T16:45:17.098Z,3.60
2023-01-17T16:47:45.665Z,3.60
2023-01-17T16:50:14.990Z,3.60
2023-01-17T16:52:41.758Z,3.40
2023-01-17T16:55:15.858Z,3.40
2023-01-17T16:57:42.534Z,3.60
2023-01-17T17:00:10.786Z,3.50
2023-01-17T17:02:39.321Z,3.50
2023-01-17T17:05:07.788Z,3.30
2023-01-17T17:07:37.432Z,3.10
2023-01-17T17:10:04.319Z,3.20
2023-01-17T17:12:32.099Z,3.30
2023-01-17T17:14:58.607Z,3.00
2023-01-17T17:17:25.112Z,3.10
2023-01-17T17:19:51.589Z,3.00
2023-01-17T17:22:18.193Z,3.00
2023-01-17T17:24:44.717Z,3.00
2023-01-17T17:27:11.250Z,3.00
2023-01-17T17:29:37.751Z,3.30
2023-01-17T17:32:06.920Z,3.40
2023-01-17T17:34:36.561Z,3.60
2023-01-17T17:37:03.959Z,3.50
2023-01-17T17:39:30.587Z,3.70
2023-01-17T17:41:57.151Z,3.90
2023-01-17T17:44:23.658Z,3.90
2023-01-17T17:46:51.327Z,3.90
2023-01-17T17:49:17.916Z,4.30
2023-01-17T17:51:44.824Z,4.50
2023-01-17T17:54:12.970Z,4.80
2023-01-17T17:56:40.240Z,4.70
2023-01-17T17:59:08.964Z,4.80
2023-01-17T18:01:38.178Z,5.10
2023-01-17T18:04:07.319Z,5.00
2023-01-17T18:06:34.694Z,5.20
2023-01-17T18:09:02.232Z,5.30
2023-01-17T18:11:29.319Z,5.30
2023-01-17T18:13:58.764Z,5.30
2023-01-17T18:16:31.748Z,5.10
2023-01-17T18:18:59.292Z,4.70
2023-01-17T18:21:32.281Z,4.70
2023-01-17T18:24:02.907Z,4.80
2023-01-17T18:26:34.784Z,4.80
2023-01-17T18:29:02.368Z,4.80
2023-01-17T18:31:30.349Z,4.50
2023-01-17T18:33:58.965Z,4.60
2023-01-17T18:36:27.538Z,5.00
2023-01-17T18:38:54.369Z,5.10
2023-01-17T18:41:26.770Z,5.20
2023-01-17T18:43:53.413Z,4.90
2023-01-17T18:46:20.282Z,4.80
2023-01-17T18:48:46.824Z,4.70
2023-01-17T18:51:16.621Z,4.90
2023-01-17T18:53:43.710Z,4.90
2023-01-17T18:56:15.673Z,5.00
2023-01-17T18:58:44.766Z,4.90
2023-01-17T19:01:18.292Z,4.20
2023-01-17T19:03:46.611Z,4.30
2023-01-17T19:06:15.518Z,4.60
2023-01-17T19:08:42.451Z,4.70
2023-01-17T19:11:09.926Z,4.70
2023-01-17T19:13:37.775Z,4.80
2023-01-17T19:16:24.746Z,4.60
2023-01-17T19:18:52.561Z,4.70
2023-01-17T19:21:23.261Z,4.60
2023-01-17T19:23:50.410Z,4.40
2023-01-17T19:26:17.852Z,4.30
2023-01-17T19:28:46.270Z,4.40
2023-01-17T19:31:15.286Z,4.50
2023-01-17T19:33:43.614Z,4.40
2023-01-17T19:36:13.464Z,4.20
2023-01-17T19:38:40.083Z,4.10
2023-01-17T19:41:08.929Z,4.00
2023-01-17T19:43:35.569Z,4.10
2023-01-17T19:46:02.380Z,4.10
2023-01-17T19:48:29.294Z,4.10
2023-01-17T19:50:55.926Z,4.00
2023-01-17T19:53:23.336Z,4.20
2023-01-17T19:55:49.941Z,4.30
2023-01-17T19:58:16.564Z,4.40
2023-01-17T20:00:46.643Z,4.40
2023-01-17T20:03:13.482Z,4.30
2023-01-17T20:05:40.048Z,4.20
2023-01-17T20:08:06.561Z,4.20
2023-01-17T20:10:33.041Z,3.90
2023-01-17T20:12:59.512Z,3.90
2023-01-17T20:15:26.456Z,3.90
2023-01-17T20:17:53.245Z,3.80
2023-01-17T20:20:23.794Z,4.10
2023-01-17T20:22:50.322Z,4.10
2023-01-17T20:25:16.902Z,4.10
2023-01-17T20:27:44.354Z,4.10
2023-01-17T20:30:20.136Z,4.00
2023-01-17T20:32:47.173Z,3.90
2023-01-17T20:35:13.868Z,3.60
2023-01-17T20:37:40.362Z,3.70
2023-01-17T20:40:07.408Z,3.60
2023-01-17T20:42:36.291Z,3.50
2023-01-17T20:45:03.003Z,3.60
2023-01-17T20:47:29.707Z,3.70
2023-01-17T20:49:57.503Z,3.80
2023-01-17T20:52:24.009Z,3.80
2023-01-17T20:54:51.680Z,3.80
2023-01-17T20:57:18.201Z,3.60
2023-01-17T20:59:45.645Z,3.70
2023-01-17T21:02:12.520Z,3.70
2023-01-17T21:04:39.264Z,3.70
2023-01-17T21:07:05.847Z,3.50
2023-01-17T21:09:32.426Z,3.60
2023-01-17T21:12:01.423Z,3.60
2023-01-17T21:14:31.911Z,3.60
2023-01-17T21:16:59.536Z,3.40
2023-01-17T21:19:26.891Z,3.40
2023-01-17T21:21:57.373Z,3.50
2023-01-17T21:24:24.314Z,3.20
2023-01-17T21:26:52.465Z,3.10
2023-01-17T21:29:19.583Z,3.30
2023-01-17T21:31:46.588Z,3.00
2023-01-17T21:34:13.805Z,3.30
2023-01-17T21:36:42.031Z,3.40
2023-01-17T21:39:15.673Z,3.40
2023-01-17T21:41:45.768Z,3.50
2023-01-17T21:44:13.497Z,3.50
2023-01-17T21:46:41.379Z,3.60
2023-01-17T21:49:12.534Z,3.30
2023-01-17T21:51:52.596Z,3.30
2023-01-17T21:54:44.627Z,3.40
2023-01-17T21:57:33.866Z,3.50
2023-01-17T22:00:01.143Z,3.30
2023-01-17T22:02:28.338Z,2.80
2023-01-17T22:04:56.270Z,3.00
2023-01-17T22:07:24.823Z,3.00
2023-01-17T22:09:51.735Z,2.80
2023-01-17T22:12:18.942Z,3.00
2023-01-17T22:14:45.756Z,3.20
2023-01-17T22:17:12.737Z,3.20
2023-01-17T22:19:39.555Z,3.00
2023-01-17T22:22:06.337Z,2.90
2023-01-17T22:24:33.053Z,2.70
2023-01-17T22:26:59.789Z,2.70
2023-01-17T22:29:26.424Z,2.30
2023-01-17T22:31:53.295Z,2.70
2023-01-17T22:34:19.898Z,3.00
2023-01-17T22:36:46.669Z,3.10
2023-01-17T22:39:13.655Z,3.10
2023-01-17T22:41:40.698Z,2.90
2023-01-17T22:44:08.192Z,2.90
2023-01-17T22:46:40.509Z,2.80
2023-01-17T22:49:08.598Z,3.00
2023-01-17T22:51:35.694Z,2.60
2023-01-17T22:54:02.685Z,2.60
2023-01-17T22:56:33.421Z,2.50
2023-01-17T22:59:00.793Z,2.70
2023-01-17T23:01:29.965Z,2.50
2023-01-17T23:04:02.050Z,2.60
2023-01-17T23:06:34.065Z,2.50
2023-01-17T23:09:04.098Z,2.30
2023-01-17T23:11:41.338Z,2.20
2023-01-17T23:14:22.111Z,2.40
2023-01-17T23:17:22.141Z,2.80
2023-01-17T23:19:54.628Z,2.60
2023-01-17T23:22:24.462Z,2.10
2023-01-17T23:24:51.569Z,2.40
2023-01-17T23:27:44.438Z,2.60
2023-01-17T23:30:20.014Z,2.50
2023-01-17T23:32:48.265Z,2.70
2023-01-17T23:35:16.453Z,2.70
2023-01-17T23:38:01.753Z,2.40
2023-01-17T23:40:28.626Z,2.40
2023-01-17T23:43:14.166Z,2.60
2023-01-17T23:45:41.223Z,2.30
2023-01-17T23:48:12.040Z,2.20
2023-01-17T23:50:40.942Z,2.30
2023-01-17T23:53:08.910Z,2.00
2023-01-17T23:55:40.543Z,2.10
2023-01-17T23:58:11.135Z,2.00
